PWSweather.com
Personal Weather Stations
Station Observations
MAHIABEACH
Mahia Beach, Mahia Peninsula Hawkes Bay -NZ 4108

Mahia BeachMahia Peninsula Hawkes Bay -NZ 4108

Lat: -39.08872, Lon: 177.878209

Elevation: 72

Station Type: WS2083

http://wairoa.net/mahia/index.htm

Latest ConditionsUpdated 11:45:05 AM GMT+12:12 Thursday, Sep 29, 2016
Currently Today's Max Today's Min Today's Average
Temperature 61.0°F16.1°C 63.1°F17.3°C 55.8°F13.2°C 58.2°F14.6°C
Dew Point 50.8°F10.4°C 54.1°F12.3°C 48.3°F9.1°C 51.2°F10.7°C
Winds 6.3 mph WNW10.1 kmh WNW 12.6 mph NW20.3 kmh NW - 6.9 mph 11.1 kmh
Wind Gusts 15.9 mph25.6 kmh 25.1 mph40.4 kmh - -
Humidity 69% 91% 62% 78%
Pressure 29.86 in1011.2 mb 29.86 in1011.2 mb 29.75 in1007.5 mb -
Precipitation - 0.28 in7.1 mm - -
Hour Temp Dew Point Humidity Winds Wind Gusts Pressure Precip Precip Rate Daily Precip Total
11:45 AM 61.0°F16.1°C 50.8°F10.4°C 69% 6.3 mph WNW10.1 kmh WNW 15.9 mph25.6 kmh 29.86 in1011.2 mb 0.00 in0.0 mm 0.00 in0.0 mm 0.28 in7.1 mm
11:30 AM 61.7°F16.5°C 51.4°F10.8°C 69% 6.6 mph NW10.6 kmh NW 16.8 mph27.0 kmh 29.86 in1011.2 mb 0.00 in0.0 mm 0.00 in0.0 mm 0.28 in7.1 mm
11:15 AM 60.6°F15.9°C 50.0°F10.0°C 68% 5.7 mph WNW9.2 kmh WNW 16.8 mph27.0 kmh 29.86 in1011.2 mb 0.00 in0.0 mm 0.00 in0.0 mm 0.28 in7.1 mm
11:00 AM 61.3°F16.3°C 49.5°F9.7°C 65% 6.5 mph WNW10.5 kmh WNW 14.5 mph23.3 kmh 29.86 in1011.2 mb 0.00 in0.0 mm 0.00 in0.0 mm 0.28 in7.1 mm
10:45 AM 61.7°F16.5°C 49.8°F9.9°C 65% 6.4 mph NW10.3 kmh NW 15.9 mph25.6 kmh 29.86 in1011.2 mb 0.00 in0.0 mm 0.00 in0.0 mm 0.28 in7.1 mm
10:30 AM 62.8°F17.1°C 50.4°F10.2°C 64% 6.1 mph NW9.8 kmh NW 19.7 mph31.7 kmh 29.86 in1011.2 mb 0.00 in0.0 mm 0.00 in0.0 mm 0.28 in7.1 mm
10:15 AM 62.2°F16.8°C 49.1°F9.5°C 62% 6.2 mph NW10.0 kmh NW 14.5 mph23.3 kmh 29.86 in1011.2 mb 0.00 in0.0 mm 0.00 in0.0 mm 0.28 in7.1 mm
10:00 AM 63.1°F17.3°C 49.9°F9.9°C 62% 5.0 mph W8.0 kmh W 13.6 mph21.9 kmh 29.86 in1011.2 mb 0.00 in0.0 mm 0.00 in0.0 mm 0.28 in7.1 mm
09:45 AM 61.2°F16.2°C 49.3°F9.6°C 65% 4.7 mph WNW7.6 kmh WNW 13.0 mph20.9 kmh 29.86 in1011.2 mb 0.00 in0.0 mm 0.00 in0.0 mm 0.28 in7.1 mm
09:30 AM 61.2°F16.2°C 49.3°F9.6°C 65% 5.5 mph WNW8.9 kmh WNW 13.6 mph21.9 kmh 29.86 in1011.2 mb 0.00 in0.0 mm 0.00 in0.0 mm 0.28 in7.1 mm
09:15 AM 62.1°F16.7°C 50.6°F10.3°C 66% 5.6 mph WNW9.0 kmh WNW 14.5 mph23.3 kmh 29.86 in1011.2 mb 0.00 in0.0 mm 0.00 in0.0 mm 0.28 in7.1 mm
09:00 AM 60.4°F15.8°C 50.6°F10.3°C 70% 6.8 mph WNW10.9 kmh WNW 18.3 mph29.5 kmh 29.85 in1010.8 mb 0.00 in0.0 mm 0.00 in0.0 mm 0.28 in7.1 mm
08:45 AM 59.9°F15.5°C 50.1°F10.1°C 70% 7.5 mph WNW12.1 kmh WNW 19.7 mph31.7 kmh 29.85 in1010.8 mb 0.00 in0.0 mm 0.00 in0.0 mm 0.28 in7.1 mm
08:30 AM 58.6°F14.8°C 49.7°F9.8°C 72% 9.0 mph NW14.5 kmh NW 18.3 mph29.5 kmh 29.84 in1010.5 mb 0.00 in0.0 mm 0.00 in0.0 mm 0.28 in7.1 mm
08:15 AM 58.1°F14.5°C 49.1°F9.5°C 72% 6.4 mph NW10.3 kmh NW 12.1 mph19.5 kmh 29.84 in1010.5 mb 0.00 in0.0 mm 0.00 in0.0 mm 0.28 in7.1 mm
08:00 AM 57.9°F14.4°C 49.0°F9.4°C 72% 6.8 mph NW10.9 kmh NW 14.5 mph23.3 kmh 29.84 in1010.5 mb 0.00 in0.0 mm 0.00 in0.0 mm 0.28 in7.1 mm
07:45 AM 57.9°F14.4°C 49.3°F9.6°C 73% 4.4 mph NW7.1 kmh NW 11.4 mph18.3 kmh 29.83 in1010.2 mb 0.00 in0.0 mm 0.00 in0.0 mm 0.28 in7.1 mm
07:30 AM 57.7°F14.3°C 49.2°F9.6°C 73% 6.3 mph NW10.1 kmh NW 13.6 mph21.9 kmh 29.83 in1010.2 mb 0.00 in0.0 mm 0.00 in0.0 mm 0.28 in7.1 mm
07:15 AM 57.6°F14.2°C 49.7°F9.8°C 75% 6.3 mph NW10.1 kmh NW 15.9 mph25.6 kmh 29.82 in1009.8 mb 0.00 in0.0 mm 0.00 in0.0 mm 0.28 in7.1 mm
07:00 AM 57.6°F14.2°C 49.3°F9.6°C 74% 6.9 mph NW11.1 kmh NW 13.6 mph21.9 kmh 29.82 in1009.8 mb 0.00 in0.0 mm 0.00 in0.0 mm 0.28 in7.1 mm
06:45 AM 57.2°F14.0°C 48.3°F9.1°C 72% 6.5 mph NNW10.5 kmh NNW 13.0 mph20.9 kmh 29.82 in1009.8 mb 0.00 in0.0 mm 0.00 in0.0 mm 0.28 in7.1 mm
06:15 AM 57.0°F13.9°C 49.2°F9.6°C 75% 7.6 mph WNW12.2 kmh WNW 16.8 mph27.0 kmh 29.80 in1009.1 mb 0.00 in0.0 mm 0.00 in0.0 mm 0.28 in7.1 mm
06:00 AM 57.4°F14.1°C 49.2°F9.6°C 74% 8.9 mph NNW14.3 kmh NNW 18.3 mph29.5 kmh 29.80 in1009.1 mb 0.00 in0.0 mm 0.00 in0.0 mm 0.28 in7.1 mm
05:45 AM 57.0°F13.9°C 50.2°F10.1°C 78% 9.0 mph NW14.5 kmh NW 15.9 mph25.6 kmh 29.79 in1008.8 mb 0.00 in0.0 mm 0.00 in0.0 mm 0.28 in7.1 mm
05:30 AM 57.0°F13.9°C 50.6°F10.3°C 79% 9.1 mph N14.6 kmh N 14.5 mph23.3 kmh 29.79 in1008.8 mb 0.01 in0.3 mm 0.00 in0.0 mm 0.28 in7.1 mm
05:15 AM 57.0°F13.9°C 50.6°F10.3°C 79% 7.4 mph NNE11.9 kmh NNE 17.4 mph28.0 kmh 29.78 in1008.5 mb 0.01 in0.3 mm 0.00 in0.0 mm 0.28 in7.1 mm
05:00 AM 57.0°F13.9°C 50.9°F10.5°C 80% 8.0 mph NW12.9 kmh NW 15.9 mph25.6 kmh 29.78 in1008.5 mb 0.01 in0.3 mm 0.00 in0.0 mm 0.28 in7.1 mm
04:45 AM 57.0°F13.9°C 51.3°F10.7°C 81% 8.0 mph NW12.9 kmh NW 17.4 mph28.0 kmh 29.78 in1008.5 mb 0.01 in0.3 mm 0.04 in1.0 mm 0.28 in7.1 mm
04:30 AM 56.7°F13.7°C 51.9°F11.1°C 84% 8.5 mph NW13.7 kmh NW 25.1 mph40.4 kmh 29.76 in1007.8 mb 0.00 in0.0 mm 0.00 in0.0 mm 0.27 in6.9 mm
04:15 AM 56.7°F13.7°C 51.9°F11.1°C 84% 8.1 mph NW13.0 kmh NW 17.4 mph28.0 kmh 29.77 in1008.1 mb 0.00 in0.0 mm 0.00 in0.0 mm 0.27 in6.9 mm
04:00 AM 56.7°F13.7°C 51.9°F11.1°C 84% 8.9 mph NW14.3 kmh NW 15.9 mph25.6 kmh 29.77 in1008.1 mb 0.00 in0.0 mm 0.00 in0.0 mm 0.27 in6.9 mm
03:45 AM 56.7°F13.7°C 52.2°F11.2°C 85% 7.6 mph NNW12.2 kmh NNW 17.4 mph28.0 kmh 29.76 in1007.8 mb 0.00 in0.0 mm 0.00 in0.0 mm 0.27 in6.9 mm
03:30 AM 56.3°F13.5°C 52.2°F11.2°C 86% 10.3 mph NW16.6 kmh NW 21.3 mph34.3 kmh 29.76 in1007.8 mb 0.04 in1.0 mm 0.00 in0.0 mm 0.27 in6.9 mm
03:15 AM 56.1°F13.4°C 52.6°F11.4°C 88% 5.9 mph N9.5 kmh N 14.5 mph23.3 kmh 29.76 in1007.8 mb 0.04 in1.0 mm 0.00 in0.0 mm 0.27 in6.9 mm
03:00 AM 55.9°F13.3°C 52.4°F11.3°C 88% 6.3 mph NW10.1 kmh NW 16.8 mph27.0 kmh 29.76 in1007.8 mb 0.07 in1.8 mm 0.00 in0.0 mm 0.27 in6.9 mm
02:45 AM 55.8°F13.2°C 52.9°F11.6°C 90% 8.6 mph NW13.8 kmh NW 14.5 mph23.3 kmh 29.76 in1007.8 mb 0.08 in2.0 mm 0.00 in0.0 mm 0.27 in6.9 mm
02:30 AM 55.9°F13.3°C 53.4°F11.9°C 91% 10.8 mph NW17.4 kmh NW 18.3 mph29.5 kmh 29.76 in1007.8 mb 0.11 in2.8 mm 0.00 in0.0 mm 0.24 in6.1 mm
02:15 AM 56.1°F13.4°C 53.5°F11.9°C 91% 8.4 mph NW13.5 kmh NW 15.9 mph25.6 kmh 29.76 in1007.8 mb 0.11 in2.8 mm 0.08 in2.0 mm 0.24 in6.1 mm
02:00 AM 56.1°F13.4°C 53.5°F11.9°C 91% 4.5 mph SW7.2 kmh SW 8.3 mph13.4 kmh 29.75 in1007.5 mb 0.09 in2.3 mm 0.00 in0.0 mm 0.20 in5.1 mm
01:45 AM 56.1°F13.4°C 53.5°F11.9°C 91% 6.0 mph NW9.7 kmh NW 10.7 mph17.2 kmh 29.75 in1007.5 mb 0.11 in2.8 mm 0.00 in0.0 mm 0.19 in4.8 mm
01:30 AM 56.7°F13.7°C 54.1°F12.3°C 91% 3.8 mph NW6.1 kmh NW 6.0 mph9.7 kmh 29.76 in1007.8 mb 0.12 in3.0 mm 0.00 in0.0 mm 0.13 in3.3 mm
01:15 AM 56.7°F13.7°C 54.1°F12.3°C 91% 5.3 mph N8.5 kmh N 13.0 mph20.9 kmh 29.75 in1007.5 mb 0.12 in3.0 mm 0.12 in3.0 mm 0.13 in3.3 mm
01:00 AM 56.7°F13.7°C 54.1°F12.3°C 91% 12.6 mph NW20.3 kmh NW 20.6 mph33.2 kmh 29.76 in1007.8 mb 0.09 in2.3 mm 0.03 in0.8 mm 0.11 in2.8 mm
12:45 AM 56.7°F13.7°C 54.1°F12.3°C 91% 7.1 mph N11.4 kmh N 17.4 mph28.0 kmh 29.76 in1007.8 mb 0.07 in1.8 mm 0.28 in7.1 mm 0.08 in2.0 mm
12:30 AM 57.2°F14.0°C 53.7°F12.1°C 88% 3.8 mph NW6.1 kmh NW 6.0 mph9.7 kmh 29.75 in1007.5 mb 0.00 in0.0 mm 0.00 in0.0 mm 0.01 in0.3 mm
12:15 AM 57.2°F14.0°C 53.7°F12.1°C 88% 5.1 mph NW8.2 kmh NW 11.4 mph18.3 kmh 29.75 in1007.5 mb 0.00 in0.0 mm 0.00 in0.0 mm 0.01 in0.3 mm
12:00 AM 57.2°F14.0°C 54.0°F12.2°C 89% 5.5 mph NW8.9 kmh NW 15.9 mph25.6 kmh 29.75 in1007.5 mb 0.01 in0.3 mm 0.00 in0.0 mm 0.01 in0.3 mm